sensor_id;sensor_type;location;lat;lon;timestamp;P1;durP1;ratioP1;P2;durP2;ratioP2
3443;SDS011;1736;52.068;6.968;2023-05-14T00:00:11;14.93;;;8.70;;
3443;SDS011;1736;52.068;6.968;2023-05-14T00:02:39;20.23;;;9.57;;
3443;SDS011;1736;52.068;6.968;2023-05-14T00:05:06;11.10;;;9.20;;
3443;SDS011;1736;52.068;6.968;2023-05-14T00:07:34;10.30;;;8.60;;
3443;SDS011;1736;52.068;6.968;2023-05-14T00:10:00;12.10;;;8.77;;
3443;SDS011;1736;52.068;6.968;2023-05-14T00:12:27;10.33;;;7.20;;
3443;SDS011;1736;52.068;6.968;2023-05-14T00:14:54;12.83;;;8.20;;
3443;SDS011;1736;52.068;6.968;2023-05-14T00:17:21;8.80;;;7.80;;
3443;SDS011;1736;52.068;6.968;2023-05-14T00:19:49;12.60;;;7.80;;
3443;SDS011;1736;52.068;6.968;2023-05-14T00:22:15;8.20;;;7.40;;
3443;SDS011;1736;52.068;6.968;2023-05-14T00:24:42;9.70;;;7.80;;
3443;SDS011;1736;52.068;6.968;2023-05-14T00:27:08;13.50;;;9.07;;
3443;SDS011;1736;52.068;6.968;2023-05-14T00:29:35;14.20;;;8.97;;
3443;SDS011;1736;52.068;6.968;2023-05-14T00:32:02;9.63;;;8.07;;
3443;SDS011;1736;52.068;6.968;2023-05-14T00:34:29;9.87;;;8.00;;
3443;SDS011;1736;52.068;6.968;2023-05-14T00:36:56;17.40;;;8.90;;
3443;SDS011;1736;52.068;6.968;2023-05-14T00:39:23;10.70;;;7.77;;
3443;SDS011;1736;52.068;6.968;2023-05-14T00:41:49;17.57;;;8.27;;
3443;SDS011;1736;52.068;6.968;2023-05-14T00:44:16;9.70;;;8.07;;
3443;SDS011;1736;52.068;6.968;2023-05-14T00:46:42;9.93;;;7.30;;
3443;SDS011;1736;52.068;6.968;2023-05-14T00:49:09;10.23;;;8.00;;
3443;SDS011;1736;52.068;6.968;2023-05-14T00:51:35;12.23;;;8.80;;
3443;SDS011;1736;52.068;6.968;2023-05-14T00:54:04;9.57;;;7.70;;
3443;SDS011;1736;52.068;6.968;2023-05-14T00:56:30;10.47;;;8.03;;
3443;SDS011;1736;52.068;6.968;2023-05-14T00:58:57;8.33;;;7.53;;
3443;SDS011;1736;52.068;6.968;2023-05-14T01:01:24;8.63;;;7.70;;
3443;SDS011;1736;52.068;6.968;2023-05-14T01:03:52;11.83;;;8.47;;
3443;SDS011;1736;52.068;6.968;2023-05-14T01:06:24;13.53;;;8.90;;
3443;SDS011;1736;52.068;6.968;2023-05-14T01:08:56;10.17;;;8.60;;
3443;SDS011;1736;52.068;6.968;2023-05-14T01:11:29;10.83;;;8.73;;
3443;SDS011;1736;52.068;6.968;2023-05-14T01:14:01;9.37;;;8.37;;
3443;SDS011;1736;52.068;6.968;2023-05-14T01:16:37;10.50;;;8.90;;
3443;SDS011;1736;52.068;6.968;2023-05-14T01:19:06;11.33;;;8.60;;
3443;SDS011;1736;52.068;6.968;2023-05-14T01:21:44;9.60;;;8.10;;
3443;SDS011;1736;52.068;6.968;2023-05-14T01:24:11;10.67;;;9.00;;
3443;SDS011;1736;52.068;6.968;2023-05-14T01:26:37;11.80;;;8.90;;
3443;SDS011;1736;52.068;6.968;2023-05-14T01:29:07;11.77;;;8.83;;
3443;SDS011;1736;52.068;6.968;2023-05-14T01:31:39;10.20;;;9.10;;
3443;SDS011;1736;52.068;6.968;2023-05-14T01:34:09;15.60;;;9.87;;
3443;SDS011;1736;52.068;6.968;2023-05-14T01:36:37;11.53;;;9.90;;
3443;SDS011;1736;52.068;6.968;2023-05-14T01:39:07;13.10;;;9.50;;
3443;SDS011;1736;52.068;6.968;2023-05-14T01:41:35;11.00;;;9.30;;
3443;SDS011;1736;52.068;6.968;2023-05-14T01:44:03;10.50;;;9.40;;
3443;SDS011;1736;52.068;6.968;2023-05-14T01:46:30;14.90;;;9.70;;
3443;SDS011;1736;52.068;6.968;2023-05-14T01:48:57;11.53;;;9.87;;
3443;SDS011;1736;52.068;6.968;2023-05-14T01:51:24;11.93;;;9.03;;
3443;SDS011;1736;52.068;6.968;2023-05-14T01:53:50;17.67;;;10.07;;
3443;SDS011;1736;52.068;6.968;2023-05-14T01:56:18;12.73;;;10.10;;
3443;SDS011;1736;52.068;6.968;2023-05-14T01:58:47;12.40;;;9.83;;
3443;SDS011;1736;52.068;6.968;2023-05-14T02:01:14;13.37;;;10.90;;
3443;SDS011;1736;52.068;6.968;2023-05-14T02:03:41;11.60;;;9.97;;
3443;SDS011;1736;52.068;6.968;2023-05-14T02:06:07;14.70;;;11.07;;
3443;SDS011;1736;52.068;6.968;2023-05-14T02:08:34;11.50;;;10.23;;
3443;SDS011;1736;52.068;6.968;2023-05-14T02:11:00;16.47;;;11.23;;
3443;SDS011;1736;52.068;6.968;2023-05-14T02:13:28;13.57;;;10.97;;
3443;SDS011;1736;52.068;6.968;2023-05-14T02:15:55;15.57;;;11.20;;
3443;SDS011;1736;52.068;6.968;2023-05-14T02:18:21;14.53;;;11.73;;
3443;SDS011;1736;52.068;6.968;2023-05-14T02:20:47;14.70;;;11.77;;
3443;SDS011;1736;52.068;6.968;2023-05-14T02:23:14;16.53;;;11.80;;
3443;SDS011;1736;52.068;6.968;2023-05-14T02:25:40;18.43;;;12.00;;
3443;SDS011;1736;52.068;6.968;2023-05-14T02:28:07;16.53;;;12.30;;
3443;SDS011;1736;52.068;6.968;2023-05-14T02:30:35;18.30;;;12.57;;
3443;SDS011;1736;52.068;6.968;2023-05-14T02:33:01;16.20;;;12.57;;
3443;SDS011;1736;52.068;6.968;2023-05-14T02:35:28;15.53;;;12.30;;
3443;SDS011;1736;52.068;6.968;2023-05-14T02:37:54;22.80;;;13.47;;
3443;SDS011;1736;52.068;6.968;2023-05-14T02:40:21;17.80;;;13.00;;
3443;SDS011;1736;52.068;6.968;2023-05-14T02:42:47;16.63;;;12.87;;
3443;SDS011;1736;52.068;6.968;2023-05-14T02:45:14;17.07;;;13.10;;
3443;SDS011;1736;52.068;6.968;2023-05-14T02:47:42;23.90;;;14.50;;
3443;SDS011;1736;52.068;6.968;2023-05-14T02:50:09;21.30;;;13.50;;
3443;SDS011;1736;52.068;6.968;2023-05-14T02:52:35;18.60;;;14.27;;
3443;SDS011;1736;52.068;6.968;2023-05-14T02:55:02;16.67;;;13.37;;
3443;SDS011;1736;52.068;6.968;2023-05-14T02:57:29;19.80;;;14.50;;
3443;SDS011;1736;52.068;6.968;2023-05-14T02:59:55;17.60;;;13.90;;
3443;SDS011;1736;52.068;6.968;2023-05-14T03:02:22;18.50;;;14.00;;
3443;SDS011;1736;52.068;6.968;2023-05-14T03:04:49;24.57;;;13.77;;
3443;SDS011;1736;52.068;6.968;2023-05-14T03:07:16;21.93;;;15.03;;
3443;SDS011;1736;52.068;6.968;2023-05-14T03:09:42;19.43;;;14.20;;
3443;SDS011;1736;52.068;6.968;2023-05-14T03:12:09;21.50;;;14.50;;
3443;SDS011;1736;52.068;6.968;2023-05-14T03:14:36;26.30;;;14.00;;
3443;SDS011;1736;52.068;6.968;2023-05-14T03:17:03;19.50;;;13.90;;
3443;SDS011;1736;52.068;6.968;2023-05-14T03:19:30;20.50;;;14.97;;
3443;SDS011;1736;52.068;6.968;2023-05-14T03:21:57;20.43;;;13.70;;
3443;SDS011;1736;52.068;6.968;2023-05-14T03:24:24;17.97;;;13.60;;
3443;SDS011;1736;52.068;6.968;2023-05-14T03:26:50;16.80;;;13.70;;
3443;SDS011;1736;52.068;6.968;2023-05-14T03:29:17;21.70;;;15.23;;
3443;SDS011;1736;52.068;6.968;2023-05-14T03:31:43;17.80;;;13.70;;
3443;SDS011;1736;52.068;6.968;2023-05-14T03:34:10;19.60;;;14.53;;
3443;SDS011;1736;52.068;6.968;2023-05-14T03:36:37;19.73;;;14.50;;
3443;SDS011;1736;52.068;6.968;2023-05-14T03:39:05;18.30;;;14.23;;
3443;SDS011;1736;52.068;6.968;2023-05-14T03:41:33;23.33;;;14.87;;
3443;SDS011;1736;52.068;6.968;2023-05-14T03:44:00;18.40;;;14.73;;
3443;SDS011;1736;52.068;6.968;2023-05-14T03:46:26;19.33;;;14.20;;
3443;SDS011;1736;52.068;6.968;2023-05-14T03:48:53;19.00;;;14.90;;
3443;SDS011;1736;52.068;6.968;2023-05-14T03:51:19;21.53;;;13.83;;
3443;SDS011;1736;52.068;6.968;2023-05-14T03:53:46;20.30;;;14.00;;
3443;SDS011;1736;52.068;6.968;2023-05-14T03:56:14;18.93;;;14.10;;
3443;SDS011;1736;52.068;6.968;2023-05-14T03:58:40;20.93;;;14.73;;
3443;SDS011;1736;52.068;6.968;2023-05-14T04:01:07;20.53;;;14.63;;
3443;SDS011;1736;52.068;6.968;2023-05-14T04:03:33;20.10;;;13.80;;
3443;SDS011;1736;52.068;6.968;2023-05-14T04:06:00;23.30;;;14.27;;
3443;SDS011;1736;52.068;6.968;2023-05-14T04:08:26;17.93;;;14.10;;
3443;SDS011;1736;52.068;6.968;2023-05-14T04:10:53;22.87;;;13.97;;
3443;SDS011;1736;52.068;6.968;2023-05-14T04:13:21;19.40;;;14.23;;
3443;SDS011;1736;52.068;6.968;2023-05-14T04:15:47;19.50;;;13.53;;
3443;SDS011;1736;52.068;6.968;2023-05-14T04:18:14;18.50;;;14.47;;
3443;SDS011;1736;52.068;6.968;2023-05-14T04:20:41;21.03;;;15.00;;
3443;SDS011;1736;52.068;6.968;2023-05-14T04:23:07;18.50;;;14.77;;
3443;SDS011;1736;52.068;6.968;2023-05-14T04:25:34;19.63;;;14.37;;
3443;SDS011;1736;52.068;6.968;2023-05-14T04:28:00;18.73;;;14.07;;
3443;SDS011;1736;52.068;6.968;2023-05-14T04:30:28;23.07;;;14.50;;
3443;SDS011;1736;52.068;6.968;2023-05-14T04:32:55;19.07;;;13.23;;
3443;SDS011;1736;52.068;6.968;2023-05-14T04:35:21;18.27;;;13.80;;
3443;SDS011;1736;52.068;6.968;2023-05-14T04:37:48;18.43;;;14.13;;
3443;SDS011;1736;52.068;6.968;2023-05-14T04:40:15;19.23;;;13.77;;
3443;SDS011;1736;52.068;6.968;2023-05-14T04:42:41;17.33;;;13.87;;
3443;SDS011;1736;52.068;6.968;2023-05-14T04:45:08;22.30;;;13.77;;
3443;SDS011;1736;52.068;6.968;2023-05-14T04:47:38;17.40;;;13.50;;
3443;SDS011;1736;52.068;6.968;2023-05-14T04:50:07;19.83;;;15.23;;
3443;SDS011;1736;52.068;6.968;2023-05-14T04:52:34;22.23;;;14.23;;
3443;SDS011;1736;52.068;6.968;2023-05-14T04:55:01;20.00;;;14.90;;
3443;SDS011;1736;52.068;6.968;2023-05-14T04:57:27;15.73;;;13.47;;
3443;SDS011;1736;52.068;6.968;2023-05-14T04:59:54;18.50;;;13.90;;
3443;SDS011;1736;52.068;6.968;2023-05-14T05:02:20;20.03;;;14.80;;
3443;SDS011;1736;52.068;6.968;2023-05-14T05:04:48;18.07;;;15.10;;
3443;SDS011;1736;52.068;6.968;2023-05-14T05:07:15;19.90;;;14.37;;
3443;SDS011;1736;52.068;6.968;2023-05-14T05:09:41;21.57;;;14.47;;
3443;SDS011;1736;52.068;6.968;2023-05-14T05:12:08;16.60;;;13.40;;
3443;SDS011;1736;52.068;6.968;2023-05-14T05:14:35;21.23;;;14.50;;
3443;SDS011;1736;52.068;6.968;2023-05-14T05:17:01;19.53;;;14.70;;
3443;SDS011;1736;52.068;6.968;2023-05-14T05:19:28;17.70;;;14.60;;
3443;SDS011;1736;52.068;6.968;2023-05-14T05:21:56;20.40;;;15.50;;
3443;SDS011;1736;52.068;6.968;2023-05-14T05:24:22;24.97;;;16.10;;
3443;SDS011;1736;52.068;6.968;2023-05-14T05:26:49;20.47;;;14.60;;
3443;SDS011;1736;52.068;6.968;2023-05-14T05:29:16;20.30;;;14.70;;
3443;SDS011;1736;52.068;6.968;2023-05-14T05:31:42;17.83;;;13.80;;
3443;SDS011;1736;52.068;6.968;2023-05-14T05:34:09;17.80;;;14.63;;
3443;SDS011;1736;52.068;6.968;2023-05-14T05:36:35;18.57;;;14.30;;
3443;SDS011;1736;52.068;6.968;2023-05-14T05:39:03;21.50;;;13.27;;
3443;SDS011;1736;52.068;6.968;2023-05-14T05:41:30;17.17;;;12.97;;
3443;SDS011;1736;52.068;6.968;2023-05-14T05:43:56;19.50;;;13.83;;
3443;SDS011;1736;52.068;6.968;2023-05-14T05:46:23;19.60;;;13.03;;
3443;SDS011;1736;52.068;6.968;2023-05-14T05:48:49;15.43;;;12.40;;
3443;SDS011;1736;52.068;6.968;2023-05-14T05:51:17;16.70;;;12.27;;
3443;SDS011;1736;52.068;6.968;2023-05-14T05:53:43;21.20;;;12.93;;
3443;SDS011;1736;52.068;6.968;2023-05-14T05:56:11;15.00;;;11.90;;
3443;SDS011;1736;52.068;6.968;2023-05-14T05:58:38;15.73;;;11.20;;
3443;SDS011;1736;52.068;6.968;2023-05-14T06:01:04;15.63;;;11.43;;
3443;SDS011;1736;52.068;6.968;2023-05-14T06:03:31;13.77;;;11.23;;
3443;SDS011;1736;52.068;6.968;2023-05-14T06:05:57;14.83;;;11.60;;
3443;SDS011;1736;52.068;6.968;2023-05-14T06:08:24;15.07;;;10.47;;
3443;SDS011;1736;52.068;6.968;2023-05-14T06:10:50;13.97;;;10.50;;
3443;SDS011;1736;52.068;6.968;2023-05-14T06:13:18;17.10;;;10.30;;
3443;SDS011;1736;52.068;6.968;2023-05-14T06:15:45;12.90;;;9.70;;
3443;SDS011;1736;52.068;6.968;2023-05-14T06:18:11;12.60;;;9.53;;
3443;SDS011;1736;52.068;6.968;2023-05-14T06:20:38;15.10;;;11.60;;
3443;SDS011;1736;52.068;6.968;2023-05-14T06:23:05;17.63;;;11.70;;
3443;SDS011;1736;52.068;6.968;2023-05-14T06:25:32;12.90;;;10.87;;
3443;SDS011;1736;52.068;6.968;2023-05-14T06:27:59;13.67;;;11.40;;
3443;SDS011;1736;52.068;6.968;2023-05-14T06:30:26;13.30;;;10.43;;
3443;SDS011;1736;52.068;6.968;2023-05-14T06:32:53;12.43;;;9.77;;
3443;SDS011;1736;52.068;6.968;2023-05-14T06:35:20;10.27;;;8.60;;
3443;SDS011;1736;52.068;6.968;2023-05-14T06:37:46;9.97;;;8.90;;
3443;SDS011;1736;52.068;6.968;2023-05-14T06:40:13;12.17;;;8.80;;
3443;SDS011;1736;52.068;6.968;2023-05-14T06:42:40;9.47;;;8.47;;
3443;SDS011;1736;52.068;6.968;2023-05-14T06:45:14;9.70;;;8.70;;
3443;SDS011;1736;52.068;6.968;2023-05-14T06:47:41;11.43;;;9.33;;
3443;SDS011;1736;52.068;6.968;2023-05-14T06:50:08;11.50;;;8.33;;
3443;SDS011;1736;52.068;6.968;2023-05-14T06:52:36;11.23;;;8.90;;
3443;SDS011;1736;52.068;6.968;2023-05-14T06:55:03;10.20;;;9.20;;
3443;SDS011;1736;52.068;6.968;2023-05-14T06:57:29;10.30;;;8.13;;
3443;SDS011;1736;52.068;6.968;2023-05-14T06:59:58;9.90;;;8.57;;
3443;SDS011;1736;52.068;6.968;2023-05-14T07:02:24;10.60;;;8.30;;
3443;SDS011;1736;52.068;6.968;2023-05-14T07:04:52;10.93;;;8.43;;
3443;SDS011;1736;52.068;6.968;2023-05-14T07:07:18;8.93;;;7.80;;
3443;SDS011;1736;52.068;6.968;2023-05-14T07:09:45;11.73;;;7.90;;
3443;SDS011;1736;52.068;6.968;2023-05-14T07:12:12;11.50;;;8.10;;
3443;SDS011;1736;52.068;6.968;2023-05-14T07:14:38;9.03;;;7.60;;
3443;SDS011;1736;52.068;6.968;2023-05-14T07:17:05;11.13;;;8.10;;
3443;SDS011;1736;52.068;6.968;2023-05-14T07:19:31;7.90;;;7.10;;
3443;SDS011;1736;52.068;6.968;2023-05-14T07:21:59;9.47;;;7.60;;
3443;SDS011;1736;52.068;6.968;2023-05-14T07:24:26;10.10;;;8.10;;
3443;SDS011;1736;52.068;6.968;2023-05-14T07:26:52;9.97;;;7.80;;
3443;SDS011;1736;52.068;6.968;2023-05-14T07:29:21;8.10;;;7.07;;
3443;SDS011;1736;52.068;6.968;2023-05-14T07:31:54;9.30;;;7.90;;
3443;SDS011;1736;52.068;6.968;2023-05-14T07:34:21;7.83;;;7.00;;
3443;SDS011;1736;52.068;6.968;2023-05-14T07:36:48;10.33;;;8.70;;
3443;SDS011;1736;52.068;6.968;2023-05-14T07:39:15;11.37;;;7.20;;
3443;SDS011;1736;52.068;6.968;2023-05-14T07:41:42;8.80;;;7.90;;
3443;SDS011;1736;52.068;6.968;2023-05-14T07:44:09;7.20;;;6.43;;
3443;SDS011;1736;52.068;6.968;2023-05-14T07:46:35;8.57;;;7.77;;
3443;SDS011;1736;52.068;6.968;2023-05-14T07:49:02;10.73;;;7.50;;
3443;SDS011;1736;52.068;6.968;2023-05-14T07:51:28;10.20;;;8.20;;
3443;SDS011;1736;52.068;6.968;2023-05-14T07:53:57;8.90;;;8.10;;
3443;SDS011;1736;52.068;6.968;2023-05-14T07:56:25;10.37;;;8.30;;
3443;SDS011;1736;52.068;6.968;2023-05-14T07:58:51;10.30;;;8.17;;
3443;SDS011;1736;52.068;6.968;2023-05-14T08:01:18;8.30;;;7.50;;
3443;SDS011;1736;52.068;6.968;2023-05-14T08:03:44;9.47;;;7.03;;
3443;SDS011;1736;52.068;6.968;2023-05-14T08:06:11;7.70;;;6.93;;
3443;SDS011;1736;52.068;6.968;2023-05-14T08:08:38;14.03;;;7.30;;
3443;SDS011;1736;52.068;6.968;2023-05-14T08:11:04;8.07;;;7.23;;
3443;SDS011;1736;52.068;6.968;2023-05-14T08:13:32;7.23;;;6.53;;
3443;SDS011;1736;52.068;6.968;2023-05-14T08:15:59;8.73;;;7.60;;
3443;SDS011;1736;52.068;6.968;2023-05-14T08:18:26;11.73;;;8.03;;
3443;SDS011;1736;52.068;6.968;2023-05-14T08:20:52;8.13;;;7.00;;
3443;SDS011;1736;52.068;6.968;2023-05-14T08:23:19;6.60;;;6.00;;
3443;SDS011;1736;52.068;6.968;2023-05-14T08:25:46;7.00;;;6.40;;
3443;SDS011;1736;52.068;6.968;2023-05-14T08:28:13;9.03;;;6.20;;
3443;SDS011;1736;52.068;6.968;2023-05-14T08:30:40;8.87;;;7.30;;
3443;SDS011;1736;52.068;6.968;2023-05-14T08:33:07;6.87;;;6.17;;
3443;SDS011;1736;52.068;6.968;2023-05-14T08:35:33;6.50;;;5.87;;
3443;SDS011;1736;52.068;6.968;2023-05-14T08:38:00;9.60;;;6.73;;
3443;SDS011;1736;52.068;6.968;2023-05-14T08:40:26;7.47;;;6.10;;
3443;SDS011;1736;52.068;6.968;2023-05-14T08:42:59;5.70;;;5.17;;
3443;SDS011;1736;52.068;6.968;2023-05-14T08:45:28;7.53;;;6.50;;
3443;SDS011;1736;52.068;6.968;2023-05-14T08:47:59;7.93;;;6.60;;
3443;SDS011;1736;52.068;6.968;2023-05-14T08:50:28;7.37;;;6.60;;
3443;SDS011;1736;52.068;6.968;2023-05-14T08:52:56;8.53;;;6.20;;
3443;SDS011;1736;52.068;6.968;2023-05-14T08:55:22;8.30;;;6.03;;
3443;SDS011;1736;52.068;6.968;2023-05-14T08:57:50;10.50;;;7.00;;
3443;SDS011;1736;52.068;6.968;2023-05-14T09:00:16;7.93;;;6.00;;
3443;SDS011;1736;52.068;6.968;2023-05-14T09:02:43;7.10;;;6.13;;
3443;SDS011;1736;52.068;6.968;2023-05-14T09:05:12;7.97;;;6.20;;
3443;SDS011;1736;52.068;6.968;2023-05-14T09:07:40;6.57;;;5.97;;
3443;SDS011;1736;52.068;6.968;2023-05-14T09:10:07;8.73;;;5.77;;
3443;SDS011;1736;52.068;6.968;2023-05-14T09:12:34;6.70;;;6.10;;
3443;SDS011;1736;52.068;6.968;2023-05-14T09:15:00;6.33;;;5.77;;
3443;SDS011;1736;52.068;6.968;2023-05-14T09:17:27;6.77;;;5.77;;
3443;SDS011;1736;52.068;6.968;2023-05-14T09:19:54;5.77;;;5.20;;
3443;SDS011;1736;52.068;6.968;2023-05-14T09:22:22;7.30;;;6.00;;
3443;SDS011;1736;52.068;6.968;2023-05-14T09:25:00;7.50;;;5.40;;
3443;SDS011;1736;52.068;6.968;2023-05-14T09:27:29;8.00;;;5.33;;
3443;SDS011;1736;52.068;6.968;2023-05-14T09:30:03;5.77;;;5.20;;
3443;SDS011;1736;52.068;6.968;2023-05-14T09:32:34;9.03;;;4.87;;
3443;SDS011;1736;52.068;6.968;2023-05-14T09:35:07;6.53;;;3.77;;
3443;SDS011;1736;52.068;6.968;2023-05-14T09:37:41;4.70;;;4.30;;
3443;SDS011;1736;52.068;6.968;2023-05-14T09:40:08;4.17;;;3.77;;
3443;SDS011;1736;52.068;6.968;2023-05-14T09:42:35;5.03;;;4.20;;
3443;SDS011;1736;52.068;6.968;2023-05-14T09:45:02;3.83;;;3.40;;
3443;SDS011;1736;52.068;6.968;2023-05-14T09:47:29;6.00;;;3.80;;
3443;SDS011;1736;52.068;6.968;2023-05-14T09:49:56;5.63;;;3.60;;
3443;SDS011;1736;52.068;6.968;2023-05-14T09:52:23;4.33;;;3.60;;
3443;SDS011;1736;52.068;6.968;2023-05-14T09:54:51;3.80;;;3.50;;
3443;SDS011;1736;52.068;6.968;2023-05-14T09:57:18;3.53;;;3.23;;
3443;SDS011;1736;52.068;6.968;2023-05-14T09:59:45;5.43;;;3.57;;
3443;SDS011;1736;52.068;6.968;2023-05-14T10:02:14;3.50;;;3.30;;
3443;SDS011;1736;52.068;6.968;2023-05-14T10:04:45;3.53;;;3.27;;
3443;SDS011;1736;52.068;6.968;2023-05-14T10:07:13;6.43;;;3.40;;
3443;SDS011;1736;52.068;6.968;2023-05-14T10:09:41;3.00;;;2.80;;
3443;SDS011;1736;52.068;6.968;2023-05-14T10:12:12;3.30;;;3.00;;
3443;SDS011;1736;52.068;6.968;2023-05-14T10:14:42;4.23;;;3.23;;
3443;SDS011;1736;52.068;6.968;2023-05-14T10:17:17;6.30;;;3.17;;
3443;SDS011;1736;52.068;6.968;2023-05-14T10:19:46;7.53;;;3.70;;
3443;SDS011;1736;52.068;6.968;2023-05-14T10:22:18;4.00;;;3.70;;
3443;SDS011;1736;52.068;6.968;2023-05-14T10:24:48;3.83;;;3.53;;
3443;SDS011;1736;52.068;6.968;2023-05-14T10:27:18;3.87;;;3.50;;
3443;SDS011;1736;52.068;6.968;2023-05-14T10:29:49;3.40;;;3.10;;
3443;SDS011;1736;52.068;6.968;2023-05-14T10:32:19;3.83;;;3.40;;
3443;SDS011;1736;52.068;6.968;2023-05-14T10:34:46;5.63;;;3.70;;
3443;SDS011;1736;52.068;6.968;2023-05-14T10:37:13;3.90;;;3.60;;
3443;SDS011;1736;52.068;6.968;2023-05-14T10:39:42;4.23;;;3.80;;
3443;SDS011;1736;52.068;6.968;2023-05-14T10:42:10;3.90;;;3.60;;
3443;SDS011;1736;52.068;6.968;2023-05-14T10:44:41;7.17;;;4.23;;
3443;SDS011;1736;52.068;6.968;2023-05-14T10:47:13;4.63;;;4.13;;
3443;SDS011;1736;52.068;6.968;2023-05-14T10:49:41;4.70;;;4.30;;
3443;SDS011;1736;52.068;6.968;2023-05-14T10:52:08;5.60;;;5.10;;
3443;SDS011;1736;52.068;6.968;2023-05-14T10:54:36;5.03;;;4.47;;
3443;SDS011;1736;52.068;6.968;2023-05-14T10:57:03;4.80;;;3.90;;
3443;SDS011;1736;52.068;6.968;2023-05-14T10:59:34;5.80;;;4.10;;
3443;SDS011;1736;52.068;6.968;2023-05-14T11:02:05;4.30;;;3.90;;
3443;SDS011;1736;52.068;6.968;2023-05-14T11:04:46;5.53;;;4.03;;
3443;SDS011;1736;52.068;6.968;2023-05-14T11:07:18;3.93;;;3.50;;
3443;SDS011;1736;52.068;6.968;2023-05-14T11:09:49;5.07;;;4.40;;
3443;SDS011;1736;52.068;6.968;2023-05-14T11:12:16;4.87;;;3.63;;
3443;SDS011;1736;52.068;6.968;2023-05-14T11:14:43;8.27;;;4.20;;
3443;SDS011;1736;52.068;6.968;2023-05-14T11:17:11;7.47;;;3.90;;
3443;SDS011;1736;52.068;6.968;2023-05-14T11:19:38;4.90;;;4.50;;
3443;SDS011;1736;52.068;6.968;2023-05-14T11:22:04;4.70;;;3.73;;
3443;SDS011;1736;52.068;6.968;2023-05-14T11:24:32;4.90;;;4.40;;
3443;SDS011;1736;52.068;6.968;2023-05-14T11:26:58;4.70;;;4.30;;
3443;SDS011;1736;52.068;6.968;2023-05-14T11:29:25;4.63;;;3.60;;
3443;SDS011;1736;52.068;6.968;2023-05-14T11:31:51;4.07;;;3.77;;
3443;SDS011;1736;52.068;6.968;2023-05-14T11:34:21;4.47;;;4.07;;
3443;SDS011;1736;52.068;6.968;2023-05-14T11:36:47;4.70;;;3.80;;
3443;SDS011;1736;52.068;6.968;2023-05-14T11:39:16;5.30;;;4.10;;
3443;SDS011;1736;52.068;6.968;2023-05-14T11:41:43;3.83;;;3.53;;
3443;SDS011;1736;52.068;6.968;2023-05-14T11:44:10;5.77;;;3.70;;
3443;SDS011;1736;52.068;6.968;2023-05-14T11:46:36;3.90;;;3.37;;
3443;SDS011;1736;52.068;6.968;2023-05-14T11:49:03;5.80;;;3.40;;
3443;SDS011;1736;52.068;6.968;2023-05-14T11:51:32;3.53;;;3.10;;
3443;SDS011;1736;52.068;6.968;2023-05-14T11:53:59;3.40;;;3.10;;
3443;SDS011;1736;52.068;6.968;2023-05-14T11:56:25;4.03;;;3.73;;
3443;SDS011;1736;52.068;6.968;2023-05-14T11:58:54;4.80;;;4.00;;
3443;SDS011;1736;52.068;6.968;2023-05-14T12:01:21;7.93;;;3.93;;
3443;SDS011;1736;52.068;6.968;2023-05-14T12:03:48;4.83;;;3.40;;
3443;SDS011;1736;52.068;6.968;2023-05-14T12:06:15;4.13;;;3.40;;
3443;SDS011;1736;52.068;6.968;2023-05-14T12:08:46;4.33;;;3.80;;
3443;SDS011;1736;52.068;6.968;2023-05-14T12:11:12;3.37;;;3.07;;
3443;SDS011;1736;52.068;6.968;2023-05-14T12:13:39;6.50;;;3.23;;
3443;SDS011;1736;52.068;6.968;2023-05-14T12:16:05;4.10;;;3.70;;
3443;SDS011;1736;52.068;6.968;2023-05-14T12:18:32;6.20;;;3.70;;
3443;SDS011;1736;52.068;6.968;2023-05-14T12:21:01;5.93;;;3.53;;
3443;SDS011;1736;52.068;6.968;2023-05-14T12:23:28;3.80;;;3.40;;
3443;SDS011;1736;52.068;6.968;2023-05-14T12:26:01;3.50;;;3.20;;
3443;SDS011;1736;52.068;6.968;2023-05-14T12:28:30;3.67;;;3.30;;
3443;SDS011;1736;52.068;6.968;2023-05-14T12:30:57;4.73;;;3.60;;
3443;SDS011;1736;52.068;6.968;2023-05-14T12:33:25;4.33;;;3.23;;
3443;SDS011;1736;52.068;6.968;2023-05-14T12:35:52;4.00;;;3.17;;
3443;SDS011;1736;52.068;6.968;2023-05-14T12:38:21;3.80;;;3.40;;
3443;SDS011;1736;52.068;6.968;2023-05-14T12:40:48;4.60;;;4.20;;
3443;SDS011;1736;52.068;6.968;2023-05-14T12:43:16;5.97;;;3.77;;
3443;SDS011;1736;52.068;6.968;2023-05-14T12:45:42;3.53;;;3.23;;
3443;SDS011;1736;52.068;6.968;2023-05-14T12:48:09;4.30;;;3.40;;
3443;SDS011;1736;52.068;6.968;2023-05-14T12:50:37;4.23;;;3.30;;
3443;SDS011;1736;52.068;6.968;2023-05-14T12:53:03;3.83;;;3.53;;
3443;SDS011;1736;52.068;6.968;2023-05-14T12:55:30;3.20;;;3.00;;
3443;SDS011;1736;52.068;6.968;2023-05-14T12:57:58;3.33;;;3.13;;
3443;SDS011;1736;52.068;6.968;2023-05-14T13:00:33;4.00;;;3.20;;
3443;SDS011;1736;52.068;6.968;2023-05-14T13:03:00;3.93;;;3.20;;
3443;SDS011;1736;52.068;6.968;2023-05-14T13:05:26;3.20;;;3.00;;
3443;SDS011;1736;52.068;6.968;2023-05-14T13:07:53;3.37;;;3.07;;
3443;SDS011;1736;52.068;6.968;2023-05-14T13:10:19;3.07;;;2.87;;
3443;SDS011;1736;52.068;6.968;2023-05-14T13:12:46;4.10;;;2.93;;
3443;SDS011;1736;52.068;6.968;2023-05-14T13:15:26;5.20;;;3.63;;
3443;SDS011;1736;52.068;6.968;2023-05-14T13:17:56;6.63;;;3.73;;
3443;SDS011;1736;52.068;6.968;2023-05-14T13:20:23;5.30;;;3.80;;
3443;SDS011;1736;52.068;6.968;2023-05-14T13:22:51;3.07;;;2.87;;
3443;SDS011;1736;52.068;6.968;2023-05-14T13:25:18;8.13;;;3.37;;
3443;SDS011;1736;52.068;6.968;2023-05-14T13:27:44;3.60;;;3.30;;
3443;SDS011;1736;52.068;6.968;2023-05-14T13:30:11;4.97;;;3.47;;
3443;SDS011;1736;52.068;6.968;2023-05-14T13:32:38;4.10;;;3.70;;
3443;SDS011;1736;52.068;6.968;2023-05-14T13:35:06;3.60;;;3.30;;
3443;SDS011;1736;52.068;6.968;2023-05-14T13:37:33;5.10;;;3.53;;
3443;SDS011;1736;52.068;6.968;2023-05-14T13:40:00;3.93;;;3.33;;
3443;SDS011;1736;52.068;6.968;2023-05-14T13:42:28;4.37;;;3.40;;
3443;SDS011;1736;52.068;6.968;2023-05-14T13:44:54;5.60;;;3.50;;
3443;SDS011;1736;52.068;6.968;2023-05-14T13:47:22;3.80;;;3.50;;
3443;SDS011;1736;52.068;6.968;2023-05-14T13:49:48;3.67;;;3.37;;
3443;SDS011;1736;52.068;6.968;2023-05-14T13:52:16;4.17;;;3.77;;
3443;SDS011;1736;52.068;6.968;2023-05-14T13:54:43;6.00;;;3.67;;
3443;SDS011;1736;52.068;6.968;2023-05-14T13:57:09;8.07;;;3.70;;
3443;SDS011;1736;52.068;6.968;2023-05-14T13:59:36;5.60;;;4.90;;
3443;SDS011;1736;52.068;6.968;2023-05-14T14:02:03;7.67;;;3.80;;
3443;SDS011;1736;52.068;6.968;2023-05-14T14:04:29;3.90;;;3.50;;
3443;SDS011;1736;52.068;6.968;2023-05-14T14:06:56;3.73;;;3.40;;
3443;SDS011;1736;52.068;6.968;2023-05-14T14:09:24;5.13;;;3.77;;
3443;SDS011;1736;52.068;6.968;2023-05-14T14:11:51;4.30;;;3.90;;
3443;SDS011;1736;52.068;6.968;2023-05-14T14:14:17;4.30;;;3.73;;
3443;SDS011;1736;52.068;6.968;2023-05-14T14:16:44;3.70;;;3.40;;
3443;SDS011;1736;52.068;6.968;2023-05-14T14:19:10;4.17;;;3.67;;
3443;SDS011;1736;52.068;6.968;2023-05-14T14:21:37;10.13;;;3.60;;
3443;SDS011;1736;52.068;6.968;2023-05-14T14:24:06;4.97;;;3.87;;
3443;SDS011;1736;52.068;6.968;2023-05-14T14:26:34;4.83;;;3.40;;
3443;SDS011;1736;52.068;6.968;2023-05-14T14:29:01;3.83;;;3.53;;
3443;SDS011;1736;52.068;6.968;2023-05-14T14:31:27;4.07;;;3.77;;
3443;SDS011;1736;52.068;6.968;2023-05-14T14:33:54;4.13;;;3.73;;
3443;SDS011;1736;52.068;6.968;2023-05-14T14:36:20;4.10;;;3.70;;
3443;SDS011;1736;52.068;6.968;2023-05-14T14:38:47;5.10;;;3.90;;
3443;SDS011;1736;52.068;6.968;2023-05-14T14:41:13;3.97;;;3.57;;
3443;SDS011;1736;52.068;6.968;2023-05-14T14:43:41;7.53;;;3.50;;
3443;SDS011;1736;52.068;6.968;2023-05-14T14:46:08;4.27;;;3.87;;
3443;SDS011;1736;52.068;6.968;2023-05-14T14:48:35;3.40;;;3.13;;
3443;SDS011;1736;52.068;6.968;2023-05-14T14:51:03;6.70;;;4.50;;
3443;SDS011;1736;52.068;6.968;2023-05-14T14:53:30;3.87;;;3.57;;
3443;SDS011;1736;52.068;6.968;2023-05-14T14:55:57;3.90;;;3.10;;
3443;SDS011;1736;52.068;6.968;2023-05-14T14:58:26;3.37;;;3.07;;
3443;SDS011;1736;52.068;6.968;2023-05-14T15:00:55;3.80;;;3.27;;
3443;SDS011;1736;52.068;6.968;2023-05-14T15:03:22;3.87;;;3.57;;
3443;SDS011;1736;52.068;6.968;2023-05-14T15:05:49;7.30;;;3.67;;